Capitol Logistics 2187

Operating for AJT



KONT
Ontario International Airport
Ontario, California
KPHL
Philadelphia International Airport
Philadelphia, Pennsylvania

Activity Log

Date Flight Route Aircraft Duration
No Flights Yet

Route Details

Aircraft Information
Primary: Boeing 767-300BDSF
Backup: Boeing 757-200SF
Route Data
Distance: 2045nm
Duration: 4h 13m
Recm'd Route: RAJEE3 AVRRY EED J236 TBC J64 RSK J110 ALS J102 SLN J24 JUDGE J24 MCI J80 VHP ROD J152 JST BOJID2
Origin Wx: KONT 180253Z 29008KT 10SM FEW120 20/09 A2992 RMK AO2 SLP125 T02000094 53011
Dest. Wx: KPHL 180254Z 01005KT 10SM OVC060 12/03 A2985 RMK AO2 SLP107 T01170028 51012
Notes: